sensor_id;sensor_type;location;lat;lon;timestamp;temperature;humidity
27026;DHT22;14565;48.626;8.978;2022-07-23T00:01:58;21.40;99.90
27026;DHT22;14565;48.626;8.978;2022-07-23T00:04:24;21.30;99.90
27026;DHT22;14565;48.626;8.978;2022-07-23T00:06:50;21.30;99.90
27026;DHT22;14565;48.626;8.978;2022-07-23T00:09:15;21.30;99.90
27026;DHT22;14565;48.626;8.978;2022-07-23T00:11:41;21.30;99.90
27026;DHT22;14565;48.626;8.978;2022-07-23T00:14:07;21.30;99.90
27026;DHT22;14565;48.626;8.978;2022-07-23T00:16:32;21.30;99.90
27026;DHT22;14565;48.626;8.978;2022-07-23T00:18:58;21.30;99.90
27026;DHT22;14565;48.626;8.978;2022-07-23T00:21:26;21.20;99.90
27026;DHT22;14565;48.626;8.978;2022-07-23T00:23:52;21.20;99.90
27026;DHT22;14565;48.626;8.978;2022-07-23T00:26:18;21.10;99.90
27026;DHT22;14565;48.626;8.978;2022-07-23T00:28:43;21.00;99.90
27026;DHT22;14565;48.626;8.978;2022-07-23T00:31:09;21.00;99.90
27026;DHT22;14565;48.626;8.978;2022-07-23T00:33:35;21.10;99.90
27026;DHT22;14565;48.626;8.978;2022-07-23T00:36:00;21.10;99.90
27026;DHT22;14565;48.626;8.978;2022-07-23T00:38:26;21.20;99.90
27026;DHT22;14565;48.626;8.978;2022-07-23T00:40:51;21.10;99.90
27026;DHT22;14565;48.626;8.978;2022-07-23T00:43:20;21.10;99.90
27026;DHT22;14565;48.626;8.978;2022-07-23T00:45:46;21.10;99.90
27026;DHT22;14565;48.626;8.978;2022-07-23T00:48:11;21.10;99.90
27026;DHT22;14565;48.626;8.978;2022-07-23T00:50:37;21.10;99.90
27026;DHT22;14565;48.626;8.978;2022-07-23T00:53:03;21.20;99.90
27026;DHT22;14565;48.626;8.978;2022-07-23T00:55:29;21.20;99.90
27026;DHT22;14565;48.626;8.978;2022-07-23T00:57:55;21.20;99.90
27026;DHT22;14565;48.626;8.978;2022-07-23T01:00:22;21.20;99.90
27026;DHT22;14565;48.626;8.978;2022-07-23T01:02:48;21.20;99.90
27026;DHT22;14565;48.626;8.978;2022-07-23T01:05:14;21.20;99.90
27026;DHT22;14565;48.626;8.978;2022-07-23T01:07:40;21.20;99.90
27026;DHT22;14565;48.626;8.978;2022-07-23T01:10:06;21.10;99.90
27026;DHT22;14565;48.626;8.978;2022-07-23T01:12:52;20.90;99.90
27026;DHT22;14565;48.626;8.978;2022-07-23T01:15:17;20.70;99.90
27026;DHT22;14565;48.626;8.978;2022-07-23T01:17:43;20.50;99.90
27026;DHT22;14565;48.626;8.978;2022-07-23T01:20:09;20.40;99.90
27026;DHT22;14565;48.626;8.978;2022-07-23T01:22:34;20.30;99.90
27026;DHT22;14565;48.626;8.978;2022-07-23T01:25:00;20.30;99.90
27026;DHT22;14565;48.626;8.978;2022-07-23T01:27:26;20.30;99.90
27026;DHT22;14565;48.626;8.978;2022-07-23T01:29:52;20.30;99.90
27026;DHT22;14565;48.626;8.978;2022-07-23T01:32:18;20.20;99.90
27026;DHT22;14565;48.626;8.978;2022-07-23T01:34:43;20.10;99.90
27026;DHT22;14565;48.626;8.978;2022-07-23T01:37:09;19.90;99.90
27026;DHT22;14565;48.626;8.978;2022-07-23T01:39:35;20.00;99.90
27026;DHT22;14565;48.626;8.978;2022-07-23T01:42:00;20.00;99.90
27026;DHT22;14565;48.626;8.978;2022-07-23T01:44:26;20.00;99.90
27026;DHT22;14565;48.626;8.978;2022-07-23T01:46:51;19.90;99.90
27026;DHT22;14565;48.626;8.978;2022-07-23T01:49:17;19.90;99.90
27026;DHT22;14565;48.626;8.978;2022-07-23T01:51:43;19.90;99.90
27026;DHT22;14565;48.626;8.978;2022-07-23T01:54:28;19.80;99.90
27026;DHT22;14565;48.626;8.978;2022-07-23T01:56:54;19.70;99.90
27026;DHT22;14565;48.626;8.978;2022-07-23T01:59:20;19.70;99.90
27026;DHT22;14565;48.626;8.978;2022-07-23T02:01:46;19.80;99.90
27026;DHT22;14565;48.626;8.978;2022-07-23T02:04:12;19.90;99.90
27026;DHT22;14565;48.626;8.978;2022-07-23T02:06:38;20.00;99.90
27026;DHT22;14565;48.626;8.978;2022-07-23T02:09:03;20.10;99.90
27026;DHT22;14565;48.626;8.978;2022-07-23T02:11:29;20.20;99.90
27026;DHT22;14565;48.626;8.978;2022-07-23T02:13:55;20.30;99.90
27026;DHT22;14565;48.626;8.978;2022-07-23T02:16:20;20.30;99.90
27026;DHT22;14565;48.626;8.978;2022-07-23T02:18:46;20.30;99.90
27026;DHT22;14565;48.626;8.978;2022-07-23T02:21:12;20.30;99.90
27026;DHT22;14565;48.626;8.978;2022-07-23T02:23:38;20.40;99.90
27026;DHT22;14565;48.626;8.978;2022-07-23T02:26:03;20.50;99.90
27026;DHT22;14565;48.626;8.978;2022-07-23T02:28:29;20.50;99.90
27026;DHT22;14565;48.626;8.978;2022-07-23T02:30:55;20.60;99.90
27026;DHT22;14565;48.626;8.978;2022-07-23T02:33:21;20.60;99.90
27026;DHT22;14565;48.626;8.978;2022-07-23T02:35:46;20.60;99.90
27026;DHT22;14565;48.626;8.978;2022-07-23T02:38:12;20.70;99.90
27026;DHT22;14565;48.626;8.978;2022-07-23T02:40:38;20.70;99.90
27026;DHT22;14565;48.626;8.978;2022-07-23T02:43:04;20.70;99.90
27026;DHT22;14565;48.626;8.978;2022-07-23T02:45:29;20.70;99.90
27026;DHT22;14565;48.626;8.978;2022-07-23T02:47:55;20.70;99.90
27026;DHT22;14565;48.626;8.978;2022-07-23T02:50:21;20.60;99.90
27026;DHT22;14565;48.626;8.978;2022-07-23T02:52:46;20.60;99.90
27026;DHT22;14565;48.626;8.978;2022-07-23T02:55:12;20.70;99.90
27026;DHT22;14565;48.626;8.978;2022-07-23T02:57:38;20.70;99.90
27026;DHT22;14565;48.626;8.978;2022-07-23T03:00:05;20.70;99.90
27026;DHT22;14565;48.626;8.978;2022-07-23T03:02:31;20.70;99.90
27026;DHT22;14565;48.626;8.978;2022-07-23T03:04:57;20.70;99.90
27026;DHT22;14565;48.626;8.978;2022-07-23T03:07:23;20.60;99.90
27026;DHT22;14565;48.626;8.978;2022-07-23T03:09:48;20.60;99.90
27026;DHT22;14565;48.626;8.978;2022-07-23T03:12:14;20.50;99.90
27026;DHT22;14565;48.626;8.978;2022-07-23T03:14:41;20.40;99.90
27026;DHT22;14565;48.626;8.978;2022-07-23T03:17:07;20.40;99.90
27026;DHT22;14565;48.626;8.978;2022-07-23T03:19:32;20.20;99.90
27026;DHT22;14565;48.626;8.978;2022-07-23T03:21:58;20.20;99.90
27026;DHT22;14565;48.626;8.978;2022-07-23T03:24:24;20.20;99.90
27026;DHT22;14565;48.626;8.978;2022-07-23T03:27:09;20.30;99.90
27026;DHT22;14565;48.626;8.978;2022-07-23T03:29:35;20.20;99.90
27026;DHT22;14565;48.626;8.978;2022-07-23T03:32:03;20.10;99.90
27026;DHT22;14565;48.626;8.978;2022-07-23T03:34:28;20.10;99.90
27026;DHT22;14565;48.626;8.978;2022-07-23T03:36:54;19.90;99.90
27026;DHT22;14565;48.626;8.978;2022-07-23T03:39:20;19.90;99.90
27026;DHT22;14565;48.626;8.978;2022-07-23T03:41:45;19.80;99.90
27026;DHT22;14565;48.626;8.978;2022-07-23T03:44:11;19.70;99.90
27026;DHT22;14565;48.626;8.978;2022-07-23T03:46:36;19.80;99.90
27026;DHT22;14565;48.626;8.978;2022-07-23T03:49:02;19.80;99.90
27026;DHT22;14565;48.626;8.978;2022-07-23T03:51:28;19.80;99.90
27026;DHT22;14565;48.626;8.978;2022-07-23T03:53:53;19.90;99.90
27026;DHT22;14565;48.626;8.978;2022-07-23T03:56:21;19.80;99.90
27026;DHT22;14565;48.626;8.978;2022-07-23T03:58:47;19.80;99.90
27026;DHT22;14565;48.626;8.978;2022-07-23T04:01:13;19.80;99.90
27026;DHT22;14565;48.626;8.978;2022-07-23T04:03:38;19.70;99.90
27026;DHT22;14565;48.626;8.978;2022-07-23T04:06:05;19.80;99.90
27026;DHT22;14565;48.626;8.978;2022-07-23T04:08:31;19.80;99.90
27026;DHT22;14565;48.626;8.978;2022-07-23T04:10:57;19.70;99.90
27026;DHT22;14565;48.626;8.978;2022-07-23T04:13:22;19.80;99.90
27026;DHT22;14565;48.626;8.978;2022-07-23T04:15:48;19.70;99.90
27026;DHT22;14565;48.626;8.978;2022-07-23T04:18:15;19.80;99.90
27026;DHT22;14565;48.626;8.978;2022-07-23T04:20:43;19.80;99.90
27026;DHT22;14565;48.626;8.978;2022-07-23T04:23:08;19.90;99.90
27026;DHT22;14565;48.626;8.978;2022-07-23T04:25:35;19.90;99.90
27026;DHT22;14565;48.626;8.978;2022-07-23T04:28:01;19.80;99.90
27026;DHT22;14565;48.626;8.978;2022-07-23T04:30:26;19.90;99.90
27026;DHT22;14565;48.626;8.978;2022-07-23T04:32:52;19.90;99.90
27026;DHT22;14565;48.626;8.978;2022-07-23T04:35:18;20.00;99.90
27026;DHT22;14565;48.626;8.978;2022-07-23T04:37:43;20.00;99.90
27026;DHT22;14565;48.626;8.978;2022-07-23T04:40:10;20.00;99.90
27026;DHT22;14565;48.626;8.978;2022-07-23T04:42:36;20.10;99.90
27026;DHT22;14565;48.626;8.978;2022-07-23T04:45:02;20.30;99.90
27026;DHT22;14565;48.626;8.978;2022-07-23T04:47:29;20.30;99.90
27026;DHT22;14565;48.626;8.978;2022-07-23T04:49:56;20.20;99.90
27026;DHT22;14565;48.626;8.978;2022-07-23T04:52:22;20.30;99.90
27026;DHT22;14565;48.626;8.978;2022-07-23T04:54:48;20.50;99.90
27026;DHT22;14565;48.626;8.978;2022-07-23T04:57:14;20.60;99.90
27026;DHT22;14565;48.626;8.978;2022-07-23T04:59:39;20.50;99.90
27026;DHT22;14565;48.626;8.978;2022-07-23T05:02:05;20.40;99.90
27026;DHT22;14565;48.626;8.978;2022-07-23T05:04:31;20.50;99.90
27026;DHT22;14565;48.626;8.978;2022-07-23T05:06:57;20.50;99.90
27026;DHT22;14565;48.626;8.978;2022-07-23T05:09:23;20.40;99.90
27026;DHT22;14565;48.626;8.978;2022-07-23T05:11:49;20.40;99.90
27026;DHT22;14565;48.626;8.978;2022-07-23T05:14:15;20.50;99.90
27026;DHT22;14565;48.626;8.978;2022-07-23T05:16:41;20.60;99.90
27026;DHT22;14565;48.626;8.978;2022-07-23T05:19:06;20.60;99.90
27026;DHT22;14565;48.626;8.978;2022-07-23T05:21:32;20.60;99.90
27026;DHT22;14565;48.626;8.978;2022-07-23T05:23:58;20.60;99.90
27026;DHT22;14565;48.626;8.978;2022-07-23T05:26:23;20.50;99.90
27026;DHT22;14565;48.626;8.978;2022-07-23T05:28:50;20.50;99.90
27026;DHT22;14565;48.626;8.978;2022-07-23T05:31:15;20.60;99.90
27026;DHT22;14565;48.626;8.978;2022-07-23T05:33:41;20.60;99.90
27026;DHT22;14565;48.626;8.978;2022-07-23T05:36:07;20.70;99.90
27026;DHT22;14565;48.626;8.978;2022-07-23T05:38:33;20.90;99.90
27026;DHT22;14565;48.626;8.978;2022-07-23T05:40:59;20.90;99.90
27026;DHT22;14565;48.626;8.978;2022-07-23T05:43:25;20.80;99.90
27026;DHT22;14565;48.626;8.978;2022-07-23T05:45:51;20.90;99.90
27026;DHT22;14565;48.626;8.978;2022-07-23T05:48:17;21.10;99.90
27026;DHT22;14565;48.626;8.978;2022-07-23T05:50:42;21.10;99.90
27026;DHT22;14565;48.626;8.978;2022-07-23T05:53:08;21.60;99.90
27026;DHT22;14565;48.626;8.978;2022-07-23T05:55:34;22.30;99.90
27026;DHT22;14565;48.626;8.978;2022-07-23T05:58:00;23.10;99.90
27026;DHT22;14565;48.626;8.978;2022-07-23T06:00:26;24.50;99.90
27026;DHT22;14565;48.626;8.978;2022-07-23T06:02:52;26.50;99.90
27026;DHT22;14565;48.626;8.978;2022-07-23T06:05:18;27.40;99.90
27026;DHT22;14565;48.626;8.978;2022-07-23T06:07:44;28.00;99.10
27026;DHT22;14565;48.626;8.978;2022-07-23T06:10:10;28.50;98.40
27026;DHT22;14565;48.626;8.978;2022-07-23T06:12:36;30.10;95.70
27026;DHT22;14565;48.626;8.978;2022-07-23T06:15:02;31.70;93.00
27026;DHT22;14565;48.626;8.978;2022-07-23T06:17:28;32.50;91.00
27026;DHT22;14565;48.626;8.978;2022-07-23T06:19:54;30.00;94.50
27026;DHT22;14565;48.626;8.978;2022-07-23T06:22:20;29.80;94.30
27026;DHT22;14565;48.626;8.978;2022-07-23T06:24:46;30.60;93.10
27026;DHT22;14565;48.626;8.978;2022-07-23T06:27:12;30.90;92.20
27026;DHT22;14565;48.626;8.978;2022-07-23T06:29:37;30.90;93.10
27026;DHT22;14565;48.626;8.978;2022-07-23T06:32:03;31.00;92.40
27026;DHT22;14565;48.626;8.978;2022-07-23T06:34:29;32.20;90.50
27026;DHT22;14565;48.626;8.978;2022-07-23T06:36:54;32.70;90.00
27026;DHT22;14565;48.626;8.978;2022-07-23T06:39:20;32.70;88.30
27026;DHT22;14565;48.626;8.978;2022-07-23T06:41:46;32.80;87.70
27026;DHT22;14565;48.626;8.978;2022-07-23T06:44:11;30.20;91.80
27026;DHT22;14565;48.626;8.978;2022-07-23T06:46:37;29.10;93.70
27026;DHT22;14565;48.626;8.978;2022-07-23T06:49:03;27.80;95.90
27026;DHT22;14565;48.626;8.978;2022-07-23T06:51:29;27.30;97.10
27026;DHT22;14565;48.626;8.978;2022-07-23T06:53:55;27.10;97.40
27026;DHT22;14565;48.626;8.978;2022-07-23T06:56:21;26.90;97.90
27026;DHT22;14565;48.626;8.978;2022-07-23T06:58:47;26.00;98.80
27026;DHT22;14565;48.626;8.978;2022-07-23T07:01:13;25.60;99.90
27026;DHT22;14565;48.626;8.978;2022-07-23T07:03:38;24.70;99.90
27026;DHT22;14565;48.626;8.978;2022-07-23T07:06:04;24.10;99.90
27026;DHT22;14565;48.626;8.978;2022-07-23T07:08:30;23.80;99.90
27026;DHT22;14565;48.626;8.978;2022-07-23T07:10:55;23.80;99.90
27026;DHT22;14565;48.626;8.978;2022-07-23T07:13:21;23.70;99.90
27026;DHT22;14565;48.626;8.978;2022-07-23T07:15:46;23.90;99.90
27026;DHT22;14565;48.626;8.978;2022-07-23T07:18:12;23.70;99.90
27026;DHT22;14565;48.626;8.978;2022-07-23T07:20:38;23.70;99.90
27026;DHT22;14565;48.626;8.978;2022-07-23T07:23:03;24.40;99.90
27026;DHT22;14565;48.626;8.978;2022-07-23T07:25:29;25.30;99.90
27026;DHT22;14565;48.626;8.978;2022-07-23T07:27:55;25.70;98.10
27026;DHT22;14565;48.626;8.978;2022-07-23T07:30:20;25.90;98.80
27026;DHT22;14565;48.626;8.978;2022-07-23T07:32:46;25.90;97.90
27026;DHT22;14565;48.626;8.978;2022-07-23T07:35:12;27.60;95.60
27026;DHT22;14565;48.626;8.978;2022-07-23T07:37:37;27.20;95.30
27026;DHT22;14565;48.626;8.978;2022-07-23T07:40:03;26.60;96.60
27026;DHT22;14565;48.626;8.978;2022-07-23T07:42:29;26.40;96.60
27026;DHT22;14565;48.626;8.978;2022-07-23T07:44:55;25.30;98.30
27026;DHT22;14565;48.626;8.978;2022-07-23T07:47:21;25.90;98.10
27026;DHT22;14565;48.626;8.978;2022-07-23T07:49:46;26.60;97.40
27026;DHT22;14565;48.626;8.978;2022-07-23T07:52:12;26.80;96.70
27026;DHT22;14565;48.626;8.978;2022-07-23T07:54:38;27.20;96.40
27026;DHT22;14565;48.626;8.978;2022-07-23T07:57:03;27.60;94.70
27026;DHT22;14565;48.626;8.978;2022-07-23T07:59:29;27.80;94.80
27026;DHT22;14565;48.626;8.978;2022-07-23T08:01:55;26.80;95.50
27026;DHT22;14565;48.626;8.978;2022-07-23T08:04:21;26.70;96.10
27026;DHT22;14565;48.626;8.978;2022-07-23T08:06:46;26.40;97.00
27026;DHT22;14565;48.626;8.978;2022-07-23T08:09:12;25.30;99.00
27026;DHT22;14565;48.626;8.978;2022-07-23T08:11:38;25.80;98.70
27026;DHT22;14565;48.626;8.978;2022-07-23T08:14:03;25.80;98.40
27026;DHT22;14565;48.626;8.978;2022-07-23T08:16:29;25.50;99.10
27026;DHT22;14565;48.626;8.978;2022-07-23T08:18:55;25.80;98.60
27026;DHT22;14565;48.626;8.978;2022-07-23T08:21:20;25.30;99.00
27026;DHT22;14565;48.626;8.978;2022-07-23T08:23:46;25.60;98.50
27026;DHT22;14565;48.626;8.978;2022-07-23T08:26:12;25.50;98.10
27026;DHT22;14565;48.626;8.978;2022-07-23T08:28:38;24.80;99.40
27026;DHT22;14565;48.626;8.978;2022-07-23T08:31:04;24.40;99.90
27026;DHT22;14565;48.626;8.978;2022-07-23T08:33:31;24.30;99.90
27026;DHT22;14565;48.626;8.978;2022-07-23T08:35:57;24.20;99.90
27026;DHT22;14565;48.626;8.978;2022-07-23T08:38:23;24.10;99.90
27026;DHT22;14565;48.626;8.978;2022-07-23T08:40:52;24.40;99.90
27026;DHT22;14565;48.626;8.978;2022-07-23T08:43:23;25.60;98.20
27026;DHT22;14565;48.626;8.978;2022-07-23T08:45:51;26.20;96.80
27026;DHT22;14565;48.626;8.978;2022-07-23T08:48:19;26.10;96.90
27026;DHT22;14565;48.626;8.978;2022-07-23T08:50:50;26.20;97.00
27026;DHT22;14565;48.626;8.978;2022-07-23T08:53:16;26.10;97.10
27026;DHT22;14565;48.626;8.978;2022-07-23T08:55:51;25.60;97.30
27026;DHT22;14565;48.626;8.978;2022-07-23T08:58:18;25.40;96.90
27026;DHT22;14565;48.626;8.978;2022-07-23T09:00:47;26.40;96.20
27026;DHT22;14565;48.626;8.978;2022-07-23T09:03:24;26.10;96.50
27026;DHT22;14565;48.626;8.978;2022-07-23T09:05:51;25.70;97.50
27026;DHT22;14565;48.626;8.978;2022-07-23T09:08:19;26.40;96.30
27026;DHT22;14565;48.626;8.978;2022-07-23T09:10:58;26.40;96.20
27026;DHT22;14565;48.626;8.978;2022-07-23T09:15:58;26.70;96.40
27026;DHT22;14565;48.626;8.978;2022-07-23T09:18:32;26.10;96.40
27026;DHT22;14565;48.626;8.978;2022-07-23T09:23:40;25.70;97.20
27026;DHT22;14565;48.626;8.978;2022-07-23T09:26:24;25.80;97.40
27026;DHT22;14565;48.626;8.978;2022-07-23T09:28:56;25.40;97.80
27026;DHT22;14565;48.626;8.978;2022-07-23T09:31:23;25.90;97.30
27026;DHT22;14565;48.626;8.978;2022-07-23T09:33:49;26.90;96.70
27026;DHT22;14565;48.626;8.978;2022-07-23T09:36:14;27.00;96.00
27026;DHT22;14565;48.626;8.978;2022-07-23T09:38:51;27.40;95.50
27026;DHT22;14565;48.626;8.978;2022-07-23T09:41:17;26.90;96.20
27026;DHT22;14565;48.626;8.978;2022-07-23T09:43:43;27.40;96.20
27026;DHT22;14565;48.626;8.978;2022-07-23T09:48:46;27.40;96.00
27026;DHT22;14565;48.626;8.978;2022-07-23T09:51:12;27.60;96.30
27026;DHT22;14565;48.626;8.978;2022-07-23T09:53:56;28.40;95.80
27026;DHT22;14565;48.626;8.978;2022-07-23T09:56:22;28.70;94.40
27026;DHT22;14565;48.626;8.978;2022-07-23T09:58:50;28.60;95.00
27026;DHT22;14565;48.626;8.978;2022-07-23T10:01:28;27.70;95.60
27026;DHT22;14565;48.626;8.978;2022-07-23T10:03:54;28.00;95.70
27026;DHT22;14565;48.626;8.978;2022-07-23T10:06:21;27.50;95.80
27026;DHT22;14565;48.626;8.978;2022-07-23T10:08:48;27.70;96.20
27026;DHT22;14565;48.626;8.978;2022-07-23T10:11:16;28.60;95.50
27026;DHT22;14565;48.626;8.978;2022-07-23T10:13:42;28.90;94.70
27026;DHT22;14565;48.626;8.978;2022-07-23T10:16:21;28.80;95.00
27026;DHT22;14565;48.626;8.978;2022-07-23T10:18:48;28.00;95.70
27026;DHT22;14565;48.626;8.978;2022-07-23T10:21:21;28.00;95.10
27026;DHT22;14565;48.626;8.978;2022-07-23T10:23:58;28.60;95.10
27026;DHT22;14565;48.626;8.978;2022-07-23T10:29:07;28.70;94.70
27026;DHT22;14565;48.626;8.978;2022-07-23T10:32:02;28.40;95.30
27026;DHT22;14565;48.626;8.978;2022-07-23T10:35:18;28.90;95.30
27026;DHT22;14565;48.626;8.978;2022-07-23T10:37:43;29.20;94.00
27026;DHT22;14565;48.626;8.978;2022-07-23T10:40:19;28.80;94.90
27026;DHT22;14565;48.626;8.978;2022-07-23T10:42:46;28.90;93.80
27026;DHT22;14565;48.626;8.978;2022-07-23T10:47:52;28.20;92.80
27026;DHT22;14565;48.626;8.978;2022-07-23T10:58:01;26.80;94.70
27026;DHT22;14565;48.626;8.978;2022-07-23T11:00:32;27.10;94.90
27026;DHT22;14565;48.626;8.978;2022-07-23T11:03:03;27.30;95.20
27026;DHT22;14565;48.626;8.978;2022-07-23T11:05:45;27.90;95.30
27026;DHT22;14565;48.626;8.978;2022-07-23T11:10:47;28.50;93.10
27026;DHT22;14565;48.626;8.978;2022-07-23T11:16:46;28.00;92.90
27026;DHT22;14565;48.626;8.978;2022-07-23T11:19:11;27.80;91.90
27026;DHT22;14565;48.626;8.978;2022-07-23T11:24:04;28.70;92.20
27026;DHT22;14565;48.626;8.978;2022-07-23T11:32:23;29.60;87.40
27026;DHT22;14565;48.626;8.978;2022-07-23T11:34:51;28.60;88.50
27026;DHT22;14565;48.626;8.978;2022-07-23T11:37:39;27.80;91.00
27026;DHT22;14565;48.626;8.978;2022-07-23T11:40:08;27.90;91.30
27026;DHT22;14565;48.626;8.978;2022-07-23T11:42:36;28.20;91.00
27026;DHT22;14565;48.626;8.978;2022-07-23T11:45:05;28.30;90.90
27026;DHT22;14565;48.626;8.978;2022-07-23T11:47:31;28.10;90.30
27026;DHT22;14565;48.626;8.978;2022-07-23T11:49:59;28.10;90.70
27026;DHT22;14565;48.626;8.978;2022-07-23T11:52:27;27.80;90.80
27026;DHT22;14565;48.626;8.978;2022-07-23T11:57:20;28.40;90.50
27026;DHT22;14565;48.626;8.978;2022-07-23T11:59:47;27.70;90.50
27026;DHT22;14565;48.626;8.978;2022-07-23T12:02:15;28.40;90.30
27026;DHT22;14565;48.626;8.978;2022-07-23T12:04:45;27.70;89.90
27026;DHT22;14565;48.626;8.978;2022-07-23T12:10:08;28.10;89.60
27026;DHT22;14565;48.626;8.978;2022-07-23T12:12:39;28.90;90.10
27026;DHT22;14565;48.626;8.978;2022-07-23T12:15:06;29.00;90.00
27026;DHT22;14565;48.626;8.978;2022-07-23T12:17:35;28.50;89.40
27026;DHT22;14565;48.626;8.978;2022-07-23T12:20:04;29.20;89.20
27026;DHT22;14565;48.626;8.978;2022-07-23T12:22:43;28.70;89.60
27026;DHT22;14565;48.626;8.978;2022-07-23T12:25:32;28.40;89.30
27026;DHT22;14565;48.626;8.978;2022-07-23T12:30:42;27.90;91.00
27026;DHT22;14565;48.626;8.978;2022-07-23T12:33:14;27.90;90.50
27026;DHT22;14565;48.626;8.978;2022-07-23T12:35:46;27.70;91.20
27026;DHT22;14565;48.626;8.978;2022-07-23T12:38:15;27.80;91.20
27026;DHT22;14565;48.626;8.978;2022-07-23T12:40:47;27.70;90.60
27026;DHT22;14565;48.626;8.978;2022-07-23T12:45:51;27.10;91.10
27026;DHT22;14565;48.626;8.978;2022-07-23T12:55:47;28.10;91.60
27026;DHT22;14565;48.626;8.978;2022-07-23T12:58:16;28.30;91.10
27026;DHT22;14565;48.626;8.978;2022-07-23T13:00:56;28.20;91.40
27026;DHT22;14565;48.626;8.978;2022-07-23T13:05:51;27.80;91.60
27026;DHT22;14565;48.626;8.978;2022-07-23T13:08:18;27.30;91.80
27026;DHT22;14565;48.626;8.978;2022-07-23T13:10:44;27.50;92.50
27026;DHT22;14565;48.626;8.978;2022-07-23T13:13:13;27.40;92.00
27026;DHT22;14565;48.626;8.978;2022-07-23T13:15:39;27.20;92.20
27026;DHT22;14565;48.626;8.978;2022-07-23T13:18:05;27.50;92.10
27026;DHT22;14565;48.626;8.978;2022-07-23T13:20:32;27.50;91.50
27026;DHT22;14565;48.626;8.978;2022-07-23T13:22:59;27.80;91.30
27026;DHT22;14565;48.626;8.978;2022-07-23T13:25:25;27.60;91.10
27026;DHT22;14565;48.626;8.978;2022-07-23T13:27:51;27.70;91.50
27026;DHT22;14565;48.626;8.978;2022-07-23T13:30:16;27.70;91.30
27026;DHT22;14565;48.626;8.978;2022-07-23T13:32:42;27.70;90.90
27026;DHT22;14565;48.626;8.978;2022-07-23T13:35:08;27.90;90.50
27026;DHT22;14565;48.626;8.978;2022-07-23T13:37:34;27.60;90.80
27026;DHT22;14565;48.626;8.978;2022-07-23T13:40:00;28.00;90.40
27026;DHT22;14565;48.626;8.978;2022-07-23T13:42:26;27.70;90.80
27026;DHT22;14565;48.626;8.978;2022-07-23T13:44:52;27.70;90.80
27026;DHT22;14565;48.626;8.978;2022-07-23T13:47:18;27.60;91.40
27026;DHT22;14565;48.626;8.978;2022-07-23T13:49:44;27.50;91.40
27026;DHT22;14565;48.626;8.978;2022-07-23T13:52:09;27.90;91.10
27026;DHT22;14565;48.626;8.978;2022-07-23T13:54:35;27.40;91.30
27026;DHT22;14565;48.626;8.978;2022-07-23T13:57:01;27.30;91.10
27026;DHT22;14565;48.626;8.978;2022-07-23T13:59:27;27.70;91.40
27026;DHT22;14565;48.626;8.978;2022-07-23T14:01:54;27.60;92.30
27026;DHT22;14565;48.626;8.978;2022-07-23T14:04:21;27.80;91.00
27026;DHT22;14565;48.626;8.978;2022-07-23T14:06:46;27.20;91.30
27026;DHT22;14565;48.626;8.978;2022-07-23T14:09:12;27.30;91.30
27026;DHT22;14565;48.626;8.978;2022-07-23T14:11:38;27.50;91.40
27026;DHT22;14565;48.626;8.978;2022-07-23T14:14:04;27.40;90.90
27026;DHT22;14565;48.626;8.978;2022-07-23T14:16:30;27.20;90.80
27026;DHT22;14565;48.626;8.978;2022-07-23T14:18:56;27.40;91.10
27026;DHT22;14565;48.626;8.978;2022-07-23T14:21:22;27.80;90.70
27026;DHT22;14565;48.626;8.978;2022-07-23T14:23:47;28.00;90.30
27026;DHT22;14565;48.626;8.978;2022-07-23T14:26:13;28.00;89.80
27026;DHT22;14565;48.626;8.978;2022-07-23T14:28:39;28.20;89.40
27026;DHT22;14565;48.626;8.978;2022-07-23T14:31:04;28.00;90.00
27026;DHT22;14565;48.626;8.978;2022-07-23T14:33:30;27.60;89.50
27026;DHT22;14565;48.626;8.978;2022-07-23T14:35:56;27.90;90.10
27026;DHT22;14565;48.626;8.978;2022-07-23T14:38:22;28.00;88.90
27026;DHT22;14565;48.626;8.978;2022-07-23T14:40:47;28.10;89.80
27026;DHT22;14565;48.626;8.978;2022-07-23T14:43:13;28.50;90.20
27026;DHT22;14565;48.626;8.978;2022-07-23T14:45:39;28.70;89.80
27026;DHT22;14565;48.626;8.978;2022-07-23T14:48:05;29.30;88.30
27026;DHT22;14565;48.626;8.978;2022-07-23T14:50:31;28.50;86.70
27026;DHT22;14565;48.626;8.978;2022-07-23T14:52:56;28.40;89.40
27026;DHT22;14565;48.626;8.978;2022-07-23T14:55:22;27.60;90.20
27026;DHT22;14565;48.626;8.978;2022-07-23T14:57:48;27.70;89.80
27026;DHT22;14565;48.626;8.978;2022-07-23T15:00:15;27.40;89.70
27026;DHT22;14565;48.626;8.978;2022-07-23T15:02:40;28.10;89.40
27026;DHT22;14565;48.626;8.978;2022-07-23T15:05:06;27.70;90.40
27026;DHT22;14565;48.626;8.978;2022-07-23T15:07:32;27.50;90.40
27026;DHT22;14565;48.626;8.978;2022-07-23T15:09:58;27.80;90.00
27026;DHT22;14565;48.626;8.978;2022-07-23T15:12:24;27.90;89.00
27026;DHT22;14565;48.626;8.978;2022-07-23T15:14:50;28.00;88.00
27026;DHT22;14565;48.626;8.978;2022-07-23T15:17:15;28.30;87.40
27026;DHT22;14565;48.626;8.978;2022-07-23T15:19:42;28.60;88.20
27026;DHT22;14565;48.626;8.978;2022-07-23T15:22:07;28.60;90.00
27026;DHT22;14565;48.626;8.978;2022-07-23T15:24:33;28.10;85.60
27026;DHT22;14565;48.626;8.978;2022-07-23T15:26:59;28.50;87.10
27026;DHT22;14565;48.626;8.978;2022-07-23T15:29:25;28.30;85.60
27026;DHT22;14565;48.626;8.978;2022-07-23T15:31:50;28.10;84.70
27026;DHT22;14565;48.626;8.978;2022-07-23T15:34:16;28.10;86.10
27026;DHT22;14565;48.626;8.978;2022-07-23T15:36:42;28.60;84.10
27026;DHT22;14565;48.626;8.978;2022-07-23T15:39:07;28.30;84.70
27026;DHT22;14565;48.626;8.978;2022-07-23T15:41:33;28.10;86.30
27026;DHT22;14565;48.626;8.978;2022-07-23T15:43:59;28.30;85.70
27026;DHT22;14565;48.626;8.978;2022-07-23T15:46:25;28.50;84.10
27026;DHT22;14565;48.626;8.978;2022-07-23T15:48:51;28.00;85.60
27026;DHT22;14565;48.626;8.978;2022-07-23T15:51:17;28.00;86.40
27026;DHT22;14565;48.626;8.978;2022-07-23T15:53:43;27.90;86.30
27026;DHT22;14565;48.626;8.978;2022-07-23T15:56:09;27.70;86.60
27026;DHT22;14565;48.626;8.978;2022-07-23T15:58:36;27.90;86.70
27026;DHT22;14565;48.626;8.978;2022-07-23T16:01:03;28.20;85.90
27026;DHT22;14565;48.626;8.978;2022-07-23T16:03:31;28.00;86.10
27026;DHT22;14565;48.626;8.978;2022-07-23T16:05:57;27.50;88.40
27026;DHT22;14565;48.626;8.978;2022-07-23T16:08:22;27.60;90.20
27026;DHT22;14565;48.626;8.978;2022-07-23T16:10:48;27.70;90.20
27026;DHT22;14565;48.626;8.978;2022-07-23T16:13:14;28.00;88.20
27026;DHT22;14565;48.626;8.978;2022-07-23T16:15:41;27.90;87.90
27026;DHT22;14565;48.626;8.978;2022-07-23T16:18:07;27.50;89.10
27026;DHT22;14565;48.626;8.978;2022-07-23T16:20:37;27.60;89.00
27026;DHT22;14565;48.626;8.978;2022-07-23T16:23:03;27.80;89.30
27026;DHT22;14565;48.626;8.978;2022-07-23T16:25:29;28.00;87.70